createdAt,value
2017-10-28T00:01:12.812Z,9.18
2017-10-28T00:03:40.363Z,9.07
2017-10-28T00:06:07.869Z,8.95
2017-10-28T00:08:36.164Z,9.90
2017-10-28T00:11:03.672Z,9.32
2017-10-28T00:13:31.203Z,9.27
2017-10-28T00:15:58.711Z,9.52
2017-10-28T00:18:27.007Z,10.02
2017-10-28T00:20:54.543Z,8.95
2017-10-28T00:23:22.840Z,10.27
2017-10-28T00:25:50.351Z,9.23
2017-10-28T00:28:17.874Z,10.23
2017-10-28T00:33:56.793Z,9.57
2017-10-28T00:36:24.329Z,10.40
2017-10-28T00:38:51.886Z,10.48
2017-10-28T00:41:19.421Z,10.10
2017-10-28T00:43:46.980Z,10.75
2017-10-28T00:46:14.518Z,10.50
2017-10-28T00:48:42.071Z,9.40
2017-10-28T00:51:09.605Z,9.77
2017-10-28T00:53:37.909Z,10.60
2017-10-28T00:56:05.444Z,10.02
2017-10-28T00:58:33.785Z,10.32
2017-10-28T01:01:01.308Z,9.85
2017-10-28T01:03:28.841Z,10.32
2017-10-28T01:05:57.153Z,11.45
2017-10-28T01:08:24.691Z,9.85
2017-10-28T01:10:52.245Z,9.25
2017-10-28T01:13:20.546Z,10.77
2017-10-28T01:15:48.095Z,10.63
2017-10-28T01:18:15.625Z,10.63
2017-10-28T01:20:43.166Z,10.88
2017-10-28T01:23:10.697Z,10.32
2017-10-28T01:25:38.241Z,8.77
2017-10-28T01:28:05.780Z,10.88
2017-10-28T01:30:34.116Z,9.45
2017-10-28T01:33:01.646Z,9.68
2017-10-28T01:35:29.196Z,10.38
2017-10-28T01:37:56.765Z,11.05
2017-10-28T01:40:24.309Z,10.48
2017-10-28T01:42:52.621Z,9.80
2017-10-28T01:45:20.171Z,10.35
2017-10-28T01:47:47.713Z,10.45
2017-10-28T01:50:15.266Z,11.32
2017-10-28T01:52:43.570Z,11.77
2017-10-28T01:55:11.133Z,10.60
2017-10-28T01:57:38.669Z,10.55
2017-10-28T02:00:06.224Z,11.52
2017-10-28T02:02:34.536Z,11.40
2017-10-28T02:05:02.105Z,11.15
2017-10-28T02:07:30.405Z,11.15
2017-10-28T02:09:57.961Z,11.50
2017-10-28T02:12:25.509Z,11.57
2017-10-28T02:14:53.046Z,10.52
2017-10-28T02:17:20.600Z,10.10
2017-10-28T02:19:48.138Z,11.25
2017-10-28T02:22:16.447Z,12.07
2017-10-28T02:24:43.978Z,11.50
2017-10-28T02:27:12.292Z,11.80
2017-10-28T02:29:40.589Z,11.75
2017-10-28T02:32:08.140Z,12.00
2017-10-28T02:34:35.679Z,11.38
2017-10-28T02:37:03.242Z,12.70
2017-10-28T02:39:30.776Z,11.82
2017-10-28T02:41:59.109Z,11.35
2017-10-28T02:44:26.653Z,11.38
2017-10-28T02:46:54.225Z,13.00
2017-10-28T02:49:21.772Z,12.70
2017-10-28T02:51:49.321Z,12.32
2017-10-28T02:54:16.849Z,12.50
2017-10-28T02:56:45.177Z,11.88
2017-10-28T02:59:12.714Z,12.40
2017-10-28T03:01:40.278Z,11.98
2017-10-28T03:04:07.827Z,12.25
2017-10-28T03:06:35.389Z,13.18
2017-10-28T03:09:02.947Z,11.98
2017-10-28T03:11:30.483Z,12.90
2017-10-28T03:13:58.045Z,13.05
2017-10-28T03:16:25.593Z,13.20
2017-10-28T03:18:53.151Z,12.23
2017-10-28T03:21:20.687Z,13.25
2017-10-28T03:23:48.271Z,13.38
2017-10-28T03:26:15.806Z,12.52
2017-10-28T03:28:43.362Z,13.68
2017-10-28T03:31:10.911Z,12.80
2017-10-28T03:33:38.489Z,12.20
2017-10-28T03:36:06.778Z,12.63
2017-10-28T03:38:35.099Z,12.50
2017-10-28T03:41:02.645Z,12.57
2017-10-28T03:43:30.189Z,12.20
2017-10-28T03:45:57.735Z,12.40
2017-10-28T03:48:25.295Z,11.68
2017-10-28T03:50:52.840Z,11.68
2017-10-28T03:53:20.503Z,13.13
2017-10-28T03:55:48.044Z,12.50
2017-10-28T03:58:15.596Z,12.05
2017-10-28T04:00:43.896Z,14.02
2017-10-28T04:03:11.437Z,12.30
2017-10-28T04:05:39.354Z,13.30
2017-10-28T04:08:06.922Z,13.05
2017-10-28T04:10:34.499Z,11.82
2017-10-28T04:13:02.053Z,13.23
2017-10-28T04:15:29.616Z,12.20
2017-10-28T04:17:57.144Z,13.32
2017-10-28T04:20:24.689Z,13.68
2017-10-28T04:22:52.237Z,15.55
2017-10-28T04:25:19.836Z,12.88
2017-10-28T04:27:47.398Z,15.10
2017-10-28T04:30:14.960Z,13.80
2017-10-28T04:32:42.508Z,13.15
2017-10-28T04:35:10.053Z,14.38
2017-10-28T04:37:37.600Z,14.27
2017-10-28T04:40:05.152Z,13.90
2017-10-28T04:42:33.454Z,12.27
2017-10-28T04:45:01.007Z,13.68
2017-10-28T04:47:28.551Z,14.32
2017-10-28T04:49:56.889Z,13.20
2017-10-28T04:52:24.435Z,14.60
2017-10-28T04:54:52.002Z,12.93
2017-10-28T04:57:19.565Z,13.27
2017-10-28T04:59:47.144Z,14.40
2017-10-28T05:02:15.461Z,12.85
2017-10-28T05:04:43.040Z,12.27
2017-10-28T05:07:10.573Z,13.13
2017-10-28T05:09:38.886Z,13.02
2017-10-28T05:12:06.425Z,11.40
2017-10-28T05:14:33.950Z,13.57
2017-10-28T05:17:01.508Z,13.20
2017-10-28T05:19:29.047Z,13.73
2017-10-28T05:21:56.600Z,12.82
2017-10-28T05:24:24.149Z,12.88
2017-10-28T05:26:51.699Z,12.02
2017-10-28T05:29:19.239Z,13.52
2017-10-28T05:31:46.796Z,12.57
2017-10-28T05:34:15.112Z,12.43
2017-10-28T05:36:42.666Z,12.13
2017-10-28T05:39:10.205Z,12.37
2017-10-28T05:41:37.752Z,12.75
2017-10-28T05:44:06.051Z,13.52
2017-10-28T05:46:33.600Z,11.52
2017-10-28T05:49:01.126Z,13.27
2017-10-28T05:51:28.673Z,13.32
2017-10-28T05:53:56.212Z,11.43
2017-10-28T05:56:23.773Z,13.02
2017-10-28T05:58:51.306Z,11.60
2017-10-28T06:01:18.862Z,11.75
2017-10-28T06:03:46.403Z,12.50
2017-10-28T06:06:14.725Z,11.32
2017-10-28T06:08:43.043Z,11.35
2017-10-28T06:11:10.586Z,11.73
2017-10-28T06:13:38.110Z,11.55
2017-10-28T06:16:05.682Z,10.70
2017-10-28T06:18:33.212Z,11.02
2017-10-28T06:21:01.533Z,11.68
2017-10-28T06:23:29.097Z,12.80
2017-10-28T06:25:56.638Z,11.98
2017-10-28T06:28:24.189Z,11.63
2017-10-28T06:30:51.736Z,12.00
2017-10-28T06:33:19.326Z,11.07
2017-10-28T06:35:46.881Z,12.25
2017-10-28T06:38:14.426Z,12.15
2017-10-28T06:40:41.957Z,11.85
2017-10-28T06:43:09.579Z,11.90
2017-10-28T06:45:37.105Z,10.35
2017-10-28T06:48:04.642Z,11.27
2017-10-28T06:50:32.940Z,10.80
2017-10-28T06:53:01.261Z,11.50
2017-10-28T06:55:28.789Z,11.18
2017-10-28T06:57:56.341Z,11.15
2017-10-28T07:00:24.634Z,10.93
2017-10-28T07:02:52.686Z,11.20
2017-10-28T07:05:20.293Z,10.77
2017-10-28T07:07:59.450Z,9.35
2017-10-28T07:10:27.027Z,10.27
2017-10-28T07:12:55.429Z,10.68
2017-10-28T07:15:22.981Z,10.40
2017-10-28T07:17:52.326Z,11.80
2017-10-28T07:20:20.881Z,10.23
2017-10-28T07:22:49.364Z,10.23
2017-10-28T07:25:23.192Z,10.35
2017-10-28T07:27:52.675Z,9.85
2017-10-28T07:30:20.225Z,11.35
2017-10-28T07:32:50.457Z,11.52
2017-10-28T07:35:18.021Z,11.45
2017-10-28T07:37:47.548Z,11.12
2017-10-28T07:40:15.227Z,10.55
2017-10-28T07:42:42.735Z,10.40
2017-10-28T07:45:10.268Z,10.05
2017-10-28T07:47:37.776Z,10.32
2017-10-28T07:50:05.302Z,10.05
2017-10-28T07:52:33.575Z,11.02
2017-10-28T07:55:01.860Z,9.77
2017-10-28T07:57:29.369Z,9.40
2017-10-28T07:59:56.899Z,9.13
2017-10-28T08:02:24.414Z,9.27
2017-10-28T08:04:51.941Z,9.15
2017-10-28T08:07:19.450Z,8.60
2017-10-28T08:09:46.981Z,9.40
2017-10-28T08:12:14.631Z,9.00
2017-10-28T08:17:15.991Z,9.65
2017-10-28T08:19:43.525Z,9.57
2017-10-28T08:22:11.036Z,16.48
2017-10-28T08:24:38.561Z,21.48
2017-10-28T08:27:06.066Z,27.15
2017-10-28T08:29:36.346Z,13.55
2017-10-28T08:32:09.605Z,12.05
2017-10-28T08:34:37.179Z,11.38
2017-10-28T08:37:04.751Z,10.30
2017-10-28T08:39:32.288Z,12.02
2017-10-28T08:41:59.824Z,11.23
2017-10-28T08:44:29.120Z,11.12
2017-10-28T08:46:57.431Z,10.82
2017-10-28T08:49:24.990Z,12.32
2017-10-28T08:51:52.534Z,11.48
2017-10-28T08:54:20.055Z,11.95
2017-10-28T08:56:47.600Z,10.82
2017-10-28T08:59:15.119Z,10.18
2017-10-28T09:01:42.654Z,10.98
2017-10-28T09:04:10.927Z,10.10
2017-10-28T09:06:38.459Z,9.57
2017-10-28T09:09:05.980Z,9.38
2017-10-28T09:11:33.508Z,10.45
2017-10-28T09:14:01.783Z,9.63
2017-10-28T09:16:29.318Z,9.52
2017-10-28T09:18:56.837Z,10.20
2017-10-28T09:21:24.368Z,9.20
2017-10-28T09:23:52.658Z,9.73
2017-10-28T09:26:20.205Z,11.20
2017-10-28T09:28:47.738Z,10.18
2017-10-28T09:31:15.258Z,9.93
2017-10-28T09:33:42.784Z,9.63
2017-10-28T09:36:11.116Z,10.32
2017-10-28T09:38:38.632Z,9.98
2017-10-28T09:41:06.139Z,9.70
2017-10-28T09:43:33.680Z,10.35
2017-10-28T09:46:01.200Z,10.80
2017-10-28T09:48:28.731Z,9.30
2017-10-28T09:50:56.235Z,9.07
2017-10-28T09:53:23.779Z,9.68
2017-10-28T09:55:52.049Z,9.05
2017-10-28T09:58:19.583Z,9.38
2017-10-28T10:00:47.087Z,9.57
2017-10-28T10:03:14.623Z,9.93
2017-10-28T10:05:42.132Z,8.77
2017-10-28T10:08:09.660Z,7.62
2017-10-28T10:10:37.194Z,7.95
2017-10-28T10:13:05.499Z,7.87
2017-10-28T10:15:33.049Z,6.82
2017-10-28T10:18:01.362Z,8.05
2017-10-28T10:20:28.867Z,6.90
2017-10-28T10:22:56.408Z,7.15
2017-10-28T10:25:23.924Z,8.25
2017-10-28T10:27:51.459Z,6.80
2017-10-28T10:30:19.758Z,7.50
2017-10-28T10:32:47.322Z,7.15
2017-10-28T10:35:14.855Z,7.12
2017-10-28T10:37:43.201Z,7.12
2017-10-28T10:40:10.723Z,6.78
2017-10-28T10:42:38.235Z,5.80
2017-10-28T10:45:05.775Z,6.53
2017-10-28T10:47:33.294Z,6.12
2017-10-28T10:50:00.835Z,5.57
2017-10-28T10:52:29.112Z,6.72
2017-10-28T10:54:56.676Z,5.75
2017-10-28T10:57:24.203Z,5.32
2017-10-28T10:59:51.731Z,5.53
2017-10-28T11:02:19.280Z,6.18
2017-10-28T11:04:46.810Z,6.00
2017-10-28T11:07:15.104Z,5.60
2017-10-28T11:09:42.652Z,5.60
2017-10-28T11:12:10.931Z,5.80
2017-10-28T11:14:39.256Z,5.55
2017-10-28T11:17:06.769Z,5.22
2017-10-28T11:19:34.317Z,5.00
2017-10-28T11:22:02.595Z,5.00
2017-10-28T11:24:30.906Z,5.43
2017-10-28T11:26:58.464Z,4.97
2017-10-28T11:29:25.992Z,4.95
2017-10-28T11:31:53.515Z,4.55
2017-10-28T11:34:21.057Z,6.45
2017-10-28T11:36:48.577Z,5.65
2017-10-28T11:39:16.174Z,3.95
2017-10-28T11:41:43.694Z,4.45
2017-10-28T11:44:11.219Z,5.05
2017-10-28T11:46:38.743Z,5.25
2017-10-28T11:49:06.263Z,5.20
2017-10-28T11:51:34.563Z,4.87
2017-10-28T11:54:02.094Z,5.25
2017-10-28T11:56:29.637Z,5.65
2017-10-28T11:58:57.163Z,4.45
2017-10-28T12:01:24.694Z,4.53
2017-10-28T12:03:52.233Z,4.53
2017-10-28T12:06:20.522Z,4.45
2017-10-28T12:08:48.830Z,5.30
2017-10-28T12:11:16.361Z,4.28
2017-10-28T12:13:43.927Z,4.90
2017-10-28T12:16:11.473Z,5.57
2017-10-28T12:18:39.008Z,5.30
2017-10-28T12:21:06.527Z,4.25
2017-10-28T12:23:34.059Z,4.60
2017-10-28T12:26:01.588Z,5.05
2017-10-28T12:28:29.143Z,5.80
2017-10-28T12:30:56.664Z,4.40
2017-10-28T12:33:25.020Z,5.00
2017-10-28T12:35:52.572Z,4.32
2017-10-28T12:38:20.880Z,4.43
2017-10-28T12:40:48.432Z,4.90
2017-10-28T12:43:15.978Z,4.40
2017-10-28T12:45:43.519Z,4.65
2017-10-28T12:48:11.829Z,4.18
2017-10-28T12:50:39.347Z,4.53
2017-10-28T12:53:07.695Z,4.50
2017-10-28T12:55:35.217Z,4.40
2017-10-28T12:58:02.755Z,3.95
2017-10-28T13:00:31.060Z,4.12
2017-10-28T13:02:58.599Z,4.40
2017-10-28T13:05:26.151Z,4.10
2017-10-28T13:07:54.461Z,4.20
2017-10-28T13:10:22.035Z,4.00
2017-10-28T13:12:49.548Z,4.18
2017-10-28T13:15:17.870Z,4.37
2017-10-28T13:17:45.407Z,4.03
2017-10-28T13:20:12.952Z,4.00
2017-10-28T13:22:41.267Z,4.40
2017-10-28T13:25:08.811Z,4.65
2017-10-28T13:27:36.345Z,4.55
2017-10-28T13:30:04.662Z,4.28
2017-10-28T13:32:32.196Z,3.70
2017-10-28T13:34:59.732Z,4.07
2017-10-28T13:37:27.260Z,3.70
2017-10-28T13:39:54.824Z,4.00
2017-10-28T13:42:22.373Z,4.55
2017-10-28T13:44:49.931Z,4.10
2017-10-28T13:47:17.492Z,4.55
2017-10-28T13:49:45.063Z,4.32
2017-10-28T13:52:12.598Z,4.07
2017-10-28T13:54:40.144Z,4.75
2017-10-28T13:57:07.691Z,4.47
2017-10-28T13:59:35.256Z,3.97
2017-10-28T14:02:02.792Z,4.90
2017-10-28T14:04:31.141Z,4.50
2017-10-28T14:06:58.687Z,4.55
2017-10-28T14:09:26.648Z,4.00
2017-10-28T14:11:54.212Z,4.45
2017-10-28T14:14:21.743Z,5.28
2017-10-28T14:16:49.295Z,4.10
2017-10-28T14:19:17.598Z,4.45
2017-10-28T14:21:45.131Z,4.30
2017-10-28T14:24:12.667Z,3.92
2017-10-28T14:26:40.983Z,4.37
2017-10-28T14:29:08.510Z,3.90
2017-10-28T14:31:36.844Z,4.37
2017-10-28T14:34:04.387Z,4.72
2017-10-28T14:36:31.924Z,4.20
2017-10-28T14:39:00.224Z,5.60
2017-10-28T14:41:27.770Z,4.37
2017-10-28T14:43:55.300Z,3.60
2017-10-28T14:46:22.865Z,3.75
2017-10-28T14:48:51.157Z,3.75
2017-10-28T14:51:19.468Z,3.92
2017-10-28T14:53:46.987Z,4.30
2017-10-28T14:56:15.302Z,3.90
2017-10-28T14:58:42.820Z,4.90
2017-10-28T15:01:11.151Z,4.35
2017-10-28T15:03:38.695Z,4.75
2017-10-28T15:06:06.222Z,4.55
2017-10-28T15:08:34.548Z,4.00
2017-10-28T15:11:02.165Z,4.20
2017-10-28T15:13:29.714Z,4.90
2017-10-28T15:15:58.039Z,4.37
2017-10-28T15:18:25.604Z,4.70
2017-10-28T15:20:53.141Z,4.20
2017-10-28T15:23:20.693Z,4.15
2017-10-28T15:25:48.238Z,4.68
2017-10-28T15:28:16.558Z,5.10
2017-10-28T15:30:44.072Z,4.85
2017-10-28T15:33:12.402Z,4.10
2017-10-28T15:35:39.926Z,5.05
2017-10-28T15:38:07.475Z,5.00
2017-10-28T15:40:35.767Z,4.93
2017-10-28T15:43:04.193Z,4.70
2017-10-28T15:45:31.747Z,4.50
2017-10-28T15:47:59.290Z,5.15
2017-10-28T15:50:27.176Z,4.80
2017-10-28T15:52:54.723Z,4.80
2017-10-28T15:55:22.254Z,4.45
2017-10-28T15:57:49.883Z,5.30
2017-10-28T16:00:17.391Z,4.32
2017-10-28T16:02:44.932Z,4.50
2017-10-28T16:05:12.471Z,4.55
2017-10-28T16:07:40.068Z,3.90
2017-10-28T16:10:07.599Z,4.87
2017-10-28T16:12:35.947Z,4.22
2017-10-28T16:15:03.478Z,4.87
2017-10-28T16:17:31.026Z,5.37
2017-10-28T16:19:58.564Z,5.07
2017-10-28T16:22:26.124Z,4.10
2017-10-28T16:24:53.683Z,5.25
2017-10-28T16:27:21.216Z,5.03
2017-10-28T16:29:48.755Z,5.50
2017-10-28T16:32:16.279Z,5.70
2017-10-28T16:34:43.824Z,5.03
2017-10-28T16:37:13.364Z,5.00
2017-10-28T16:39:40.909Z,4.53
2017-10-28T16:42:08.435Z,5.57
2017-10-28T16:44:36.750Z,4.62
2017-10-28T16:47:04.294Z,4.93
2017-10-28T16:49:31.867Z,4.90
2017-10-28T16:51:59.387Z,4.97
2017-10-28T16:54:27.698Z,5.32
2017-10-28T16:56:55.223Z,5.45
2017-10-28T16:59:23.527Z,5.00
2017-10-28T17:01:55.783Z,5.18
2017-10-28T17:04:24.074Z,6.00
2017-10-28T17:06:51.599Z,5.97
2017-10-28T17:09:19.168Z,6.80
2017-10-28T17:11:47.455Z,6.15
2017-10-28T17:14:15.783Z,5.87
2017-10-28T17:16:44.311Z,5.00
2017-10-28T17:19:12.636Z,5.30
2017-10-28T17:21:40.167Z,4.68
2017-10-28T17:24:07.681Z,4.85
2017-10-28T17:26:35.271Z,4.68
2017-10-28T17:29:03.587Z,4.70
2017-10-28T17:31:31.123Z,5.12
2017-10-28T17:33:58.668Z,4.43
2017-10-28T17:36:26.971Z,4.80
2017-10-28T17:38:54.501Z,4.72
2017-10-28T17:41:22.826Z,4.85
2017-10-28T17:43:50.387Z,4.15
2017-10-28T17:46:17.987Z,4.65
2017-10-28T17:48:45.509Z,4.50
2017-10-28T17:51:13.068Z,4.35
2017-10-28T17:53:40.590Z,3.90
2017-10-28T17:56:08.879Z,4.10
2017-10-28T17:58:36.396Z,3.92
2017-10-28T18:01:03.935Z,3.90
2017-10-28T18:03:31.465Z,4.40
2017-10-28T18:05:59.004Z,3.95
2017-10-28T18:08:27.469Z,3.97
2017-10-28T18:10:55.796Z,3.45
2017-10-28T18:13:23.361Z,3.70
2017-10-28T18:15:50.914Z,4.10
2017-10-28T18:18:18.455Z,3.25
2017-10-28T18:20:45.975Z,4.05
2017-10-28T18:23:13.495Z,4.05
2017-10-28T18:25:41.026Z,3.22
2017-10-28T18:28:08.561Z,3.10
2017-10-28T18:30:36.080Z,3.65
2017-10-28T18:33:03.682Z,2.90
2017-10-28T18:35:31.236Z,3.35
2017-10-28T18:37:58.788Z,3.47
2017-10-28T18:40:31.390Z,3.65
2017-10-28T18:43:03.164Z,3.00
2017-10-28T18:45:32.640Z,3.30
2017-10-28T18:48:00.217Z,2.55
2017-10-28T18:50:29.519Z,3.40
2017-10-28T18:52:57.833Z,2.95
2017-10-28T18:55:26.135Z,2.60
2017-10-28T18:57:53.700Z,2.75
2017-10-28T19:00:21.227Z,2.12
2017-10-28T19:02:48.812Z,2.25
2017-10-28T19:05:18.423Z,1.90
2017-10-28T19:07:45.992Z,2.37
2017-10-28T19:10:13.517Z,2.37
2017-10-28T19:12:41.064Z,2.22
2017-10-28T19:15:08.609Z,2.55
2017-10-28T19:17:36.158Z,2.37
2017-10-28T19:20:03.712Z,2.10
2017-10-28T19:22:32.031Z,2.55
2017-10-28T19:24:59.558Z,2.35
2017-10-28T19:27:27.860Z,2.30
2017-10-28T19:29:55.369Z,2.20
2017-10-28T19:32:22.929Z,2.17
2017-10-28T19:34:50.464Z,1.60
2017-10-28T19:37:17.975Z,1.70
2017-10-28T19:39:46.267Z,2.10
2017-10-28T19:42:13.782Z,2.00
2017-10-28T19:44:41.314Z,1.77
2017-10-28T19:47:08.818Z,1.73
2017-10-28T19:49:37.119Z,1.85
2017-10-28T19:52:04.623Z,2.10
2017-10-28T19:54:32.158Z,2.67
2017-10-28T19:56:59.668Z,1.90
2017-10-28T19:59:27.190Z,1.80
2017-10-28T20:01:54.695Z,1.65
2017-10-28T20:04:22.991Z,1.60
2017-10-28T20:06:50.508Z,1.50
2017-10-28T20:09:18.027Z,1.42
2017-10-28T20:11:45.532Z,1.70
2017-10-28T20:14:13.067Z,1.73
2017-10-28T20:16:40.571Z,2.12
2017-10-28T20:19:08.861Z,1.92
2017-10-28T20:21:36.373Z,1.60
2017-10-28T20:24:03.899Z,1.62
2017-10-28T20:26:31.409Z,1.85
2017-10-28T20:28:58.927Z,1.50
2017-10-28T20:31:26.447Z,1.73
2017-10-28T20:33:53.987Z,1.62
2017-10-28T20:36:21.483Z,1.45
2017-10-28T20:38:48.979Z,1.58
2017-10-28T20:41:16.500Z,1.70
2017-10-28T20:43:44.009Z,1.65
2017-10-28T20:46:11.524Z,1.35
2017-10-28T20:48:39.035Z,1.77
2017-10-28T20:51:06.555Z,1.85
2017-10-28T20:53:34.054Z,1.75
2017-10-28T20:56:01.568Z,1.60
2017-10-28T20:58:29.070Z,2.28
2017-10-28T21:00:56.587Z,1.92
2017-10-28T21:03:24.098Z,1.98
2017-10-28T21:05:51.606Z,1.70
2017-10-28T21:08:19.108Z,1.75
2017-10-28T21:10:46.621Z,2.15
2017-10-28T21:13:14.124Z,1.98
2017-10-28T21:15:41.642Z,1.73
2017-10-28T21:18:09.139Z,1.87
2017-10-28T21:20:36.658Z,2.60
2017-10-28T21:23:04.161Z,2.60
2017-10-28T21:25:31.683Z,2.62
2017-10-28T21:27:59.187Z,2.12
2017-10-28T21:30:27.474Z,2.47
2017-10-28T21:32:55.805Z,3.33
2017-10-28T21:35:23.362Z,3.80
2017-10-28T21:37:50.867Z,4.20
2017-10-28T21:40:18.365Z,3.35
2017-10-28T21:42:45.886Z,3.10
2017-10-28T21:45:14.150Z,7.30
2017-10-28T21:47:41.670Z,7.05
2017-10-28T21:50:09.168Z,6.53
2017-10-28T21:52:36.683Z,6.85
2017-10-28T21:55:04.191Z,6.20
2017-10-28T21:57:31.723Z,6.25
2017-10-28T21:59:59.222Z,4.72
2017-10-28T22:02:27.521Z,5.80
2017-10-28T22:04:55.034Z,11.55
2017-10-28T22:07:22.555Z,6.90
2017-10-28T22:09:50.069Z,14.00
2017-10-28T22:12:18.367Z,16.00
2017-10-28T22:14:45.886Z,19.12
2017-10-28T22:17:13.412Z,5.65
2017-10-28T22:19:40.919Z,2.83
2017-10-28T22:22:09.203Z,1.85
2017-10-28T22:24:36.703Z,2.00
2017-10-28T22:27:04.227Z,2.00
2017-10-28T22:29:32.492Z,2.15
2017-10-28T22:32:00.775Z,2.17
2017-10-28T22:34:28.275Z,2.25
2017-10-28T22:36:55.790Z,2.40
2017-10-28T22:39:24.054Z,2.08
2017-10-28T22:41:51.556Z,2.58
2017-10-28T22:44:19.075Z,2.33
2017-10-28T22:46:46.578Z,2.00
2017-10-28T22:49:14.858Z,2.10
2017-10-28T22:51:42.352Z,2.53
2017-10-28T22:54:09.883Z,2.90
2017-10-28T22:56:37.388Z,2.53
2017-10-28T22:59:04.910Z,2.50
2017-10-28T23:01:32.406Z,2.80
2017-10-28T23:03:59.923Z,3.05
2017-10-28T23:06:27.427Z,2.75
2017-10-28T23:08:55.711Z,3.10
2017-10-28T23:11:23.986Z,2.80
2017-10-28T23:13:52.271Z,2.90
2017-10-28T23:16:20.543Z,3.95
2017-10-28T23:18:48.823Z,3.70
2017-10-28T23:21:17.086Z,3.00
2017-10-28T23:23:44.599Z,3.47
2017-10-28T23:26:12.118Z,3.75
2017-10-28T23:28:40.419Z,3.55
2017-10-28T23:31:13.885Z,3.85
2017-10-28T23:33:41.404Z,3.92
2017-10-28T23:36:08.932Z,4.60
2017-10-28T23:38:36.454Z,4.15
2017-10-28T23:41:04.925Z,4.05
2017-10-28T23:43:32.468Z,3.83
2017-10-28T23:45:59.977Z,3.58
2017-10-28T23:48:28.261Z,5.72
2017-10-28T23:50:55.782Z,4.18
2017-10-28T23:53:23.282Z,4.40
2017-10-28T23:55:50.799Z,4.40
2017-10-28T23:58:18.303Z,4.28
